Time;durP1;ratioP1;P1;durP2;ratioP2;P2;SDS_P1;SDS_P2;PMS_P1;PMS_P2;Temp;Humidity;BMP_temperature;BMP_pressure;BME280_temperature;BME280_humidity;BME280_pressure;Samples;Min_cycle;Max_cycle;Signal;HPM_P1;HPM_P2
2023/06/07 00:00:55;;;;;;;20.15;12.88;;;;;;;;;;5034111;28;20017;-57
2023/06/07 00:03:21;;;;;;;20.42;12.40;;;;;;;;;;5034055;28;20067;-60
2023/06/07 00:05:47;;;;;;;19.88;12.15;;;;;;;;;;5033343;28;20021;-58
2023/06/07 00:08:14;;;;;;;19.75;12.40;;;;;;;;;;5033918;28;20603;-61
2023/06/07 00:10:40;;;;;;;21.80;13.20;;;;;;;;;;5034084;28;20021;-60
2023/06/07 00:13:06;;;;;;;22.13;13.35;;;;;;;;;;5032696;28;20124;-61
2023/06/07 00:15:32;;;;;;;23.08;12.32;;;;;;;;;;5032961;28;20021;-61
2023/06/07 00:18:00;;;;;;;21.13;12.60;;;;;;;;;;5033515;28;20026;-61
2023/06/07 00:20:30;;;;;;;20.67;13.05;;;;;;;;;;5033472;28;20033;-58
2023/06/07 00:22:56;;;;;;;20.20;12.57;;;;;;;;;;5033388;28;20013;-61
2023/06/07 00:25:23;;;;;;;20.10;13.07;;;;;;;;;;5032620;28;20028;-60
2023/06/07 00:27:49;;;;;;;21.65;12.70;;;;;;;;;;5033166;28;20052;-59
2023/06/07 00:30:17;;;;;;;20.50;12.77;;;;;;;;;;5031977;28;20481;-60
2023/06/07 00:32:43;;;;;;;19.97;13.10;;;;;;;;;;5033188;28;20029;-60
2023/06/07 00:35:09;;;;;;;21.52;13.05;;;;;;;;;;5031564;28;20284;-60
2023/06/07 00:37:35;;;;;;;21.73;13.38;;;;;;;;;;5033067;28;20025;-58
2023/06/07 00:40:01;;;;;;;24.73;13.25;;;;;;;;;;5032941;28;20084;-60
2023/06/07 00:42:27;;;;;;;22.52;13.70;;;;;;;;;;5033041;28;20021;-60
2023/06/07 00:44:53;;;;;;;23.42;13.07;;;;;;;;;;5032136;28;20030;-58
2023/06/07 00:47:19;;;;;;;20.65;13.18;;;;;;;;;;5032882;28;20029;-58
2023/06/07 00:49:45;;;;;;;19.10;12.50;;;;;;;;;;5063180;22;20051;-60
2023/06/07 00:52:12;;;;;;;20.67;13.35;;;;;;;;;;5071071;28;20036;-57
2023/06/07 00:54:38;;;;;;;21.17;13.20;;;;;;;;;;5070309;28;20373;-57
2023/06/07 00:57:05;;;;;;;22.13;12.73;;;;;;;;;;5072536;28;20021;-57
2023/06/07 00:59:31;;;;;;;21.02;13.10;;;;;;;;;;5071104;28;20020;-57
2023/06/07 01:01:57;;;;;;;22.35;13.35;;;;;;;;;;5071101;28;20119;-55
2023/06/07 01:04:24;;;;;;;19.65;13.30;;;;;;;;;;5070405;28;20085;-60
2023/06/07 01:06:52;;;;;;;20.90;12.63;;;;;;;;;;5072319;28;20016;-58
2023/06/07 01:09:19;;;;;;;18.63;13.07;;;;;;;;;;5072280;28;20021;-59
2023/06/07 01:11:47;;;;;;;22.08;12.77;;;;;;;;;;5070868;28;20630;-58
2023/06/07 01:14:13;;;;;;;21.33;13.10;;;;;;;;;;5071578;28;20031;-57
2023/06/07 01:16:40;;;;;;;22.73;13.23;;;;;;;;;;5072503;28;20012;-61
2023/06/07 01:19:06;;;;;;;20.77;13.23;;;;;;;;;;5071041;28;20020;-60
2023/06/07 01:21:33;;;;;;;18.90;12.82;;;;;;;;;;5072471;28;20021;-58
2023/06/07 01:23:59;;;;;;;19.02;13.23;;;;;;;;;;5071638;28;20021;-59
2023/06/07 01:26:27;;;;;;;20.80;13.32;;;;;;;;;;5071782;28;20350;-58
2023/06/07 01:28:53;;;;;;;21.77;13.43;;;;;;;;;;5071966;28;20017;-58
2023/06/07 01:31:21;;;;;;;20.75;13.25;;;;;;;;;;5071869;28;20012;-58
2023/06/07 01:33:47;;;;;;;22.70;13.60;;;;;;;;;;5070219;28;20028;-58
2023/06/07 01:36:16;;;;;;;21.23;13.65;;;;;;;;;;5071274;28;20017;-58
2023/06/07 01:38:42;;;;;;;18.63;12.77;;;;;;;;;;5071808;28;20013;-59
2023/06/07 01:41:09;;;;;;;22.13;12.60;;;;;;;;;;5070544;28;20218;-59
2023/06/07 01:43:35;;;;;;;21.75;13.10;;;;;;;;;;5070378;28;20017;-58
2023/06/07 01:46:02;;;;;;;22.25;13.90;;;;;;;;;;5070879;28;20028;-59
2023/06/07 01:48:28;;;;;;;21.13;13.48;;;;;;;;;;5071791;28;20052;-58
2023/06/07 01:50:54;;;;;;;23.33;14.05;;;;;;;;;;5071554;28;20321;-58
2023/06/07 01:53:20;;;;;;;20.40;13.45;;;;;;;;;;5071628;28;20020;-59
2023/06/07 01:55:46;;;;;;;21.10;13.00;;;;;;;;;;5069612;28;20031;-57
2023/06/07 01:58:15;;;;;;;22.70;13.57;;;;;;;;;;5070414;28;20012;-60
2023/06/07 02:00:48;;;;;;;20.52;13.82;;;;;;;;;;5071461;28;20017;-60
2023/06/07 02:03:16;;;;;;;19.83;12.88;;;;;;;;;;5071567;28;20021;-59
2023/06/07 02:05:45;;;;;;;24.17;13.73;;;;;;;;;;5070840;28;20021;-58
2023/06/07 02:08:48;;;;;;;21.00;14.15;;;;;;;;;;5070332;28;20029;-58
2023/06/07 02:11:15;;;;;;;22.60;13.52;;;;;;;;;;5029375;28;20068;-56
2023/06/07 02:13:42;;;;;;;20.80;13.57;;;;;;;;;;5064064;28;20112;-58
2023/06/07 02:16:09;;;;;;;22.90;13.82;;;;;;;;;;5069436;28;20027;-60
2023/06/07 02:18:40;;;;;;;22.23;13.50;;;;;;;;;;5070068;28;20027;-59
2023/06/07 02:21:06;;;;;;;23.40;13.20;;;;;;;;;;5071461;28;20024;-58
2023/06/07 02:23:33;;;;;;;22.23;13.10;;;;;;;;;;5071584;28;20130;-60
2023/06/07 02:25:59;;;;;;;22.05;13.63;;;;;;;;;;5069278;28;20077;-58
2023/06/07 02:28:25;;;;;;;22.42;13.00;;;;;;;;;;5071378;28;20070;-59
2023/06/07 02:30:51;;;;;;;22.35;13.20;;;;;;;;;;5071355;28;20021;-58
2023/06/07 02:33:21;;;;;;;21.08;13.32;;;;;;;;;;5070079;28;20142;-58
2023/06/07 02:35:47;;;;;;;22.17;12.65;;;;;;;;;;5069331;28;20123;-58
2023/06/07 02:38:13;;;;;;;24.23;12.93;;;;;;;;;;5069925;28;20066;-58
2023/06/07 02:40:39;;;;;;;21.20;13.48;;;;;;;;;;5070619;28;20025;-55
2023/06/07 02:43:06;;;;;;;25.95;14.15;;;;;;;;;;5070756;28;20353;-57
2023/06/07 02:45:32;;;;;;;23.20;12.77;;;;;;;;;;5071179;28;20453;-60
2023/06/07 02:47:58;;;;;;;25.50;13.40;;;;;;;;;;5071263;28;20028;-57
2023/06/07 02:50:24;;;;;;;24.33;12.70;;;;;;;;;;5071218;28;20426;-59
2023/06/07 02:52:50;;;;;;;20.98;12.23;;;;;;;;;;5071468;28;20024;-56
2023/06/07 02:55:17;;;;;;;21.08;12.65;;;;;;;;;;5069285;28;20103;-52
2023/06/07 02:57:43;;;;;;;25.00;13.35;;;;;;;;;;5070371;28;20028;-57
2023/06/07 03:00:10;;;;;;;23.08;12.45;;;;;;;;;;5074797;28;20070;-57
2023/06/07 03:02:36;;;;;;;19.73;12.10;;;;;;;;;;5073756;28;20423;-58
2023/06/07 03:05:04;;;;;;;21.65;12.25;;;;;;;;;;5074051;28;20082;-59
2023/06/07 03:07:32;;;;;;;20.65;12.30;;;;;;;;;;5073544;28;20483;-57
2023/06/07 03:09:58;;;;;;;23.13;12.50;;;;;;;;;;5074798;28;20468;-58
2023/06/07 03:12:24;;;;;;;23.38;13.32;;;;;;;;;;5074946;28;20067;-56
2023/06/07 03:14:50;;;;;;;25.05;12.40;;;;;;;;;;5072408;28;20135;-59
2023/06/07 03:17:17;;;;;;;24.50;12.10;;;;;;;;;;5074584;28;20025;-59
2023/06/07 03:19:43;;;;;;;22.33;13.30;;;;;;;;;;5073137;28;20499;-58
2023/06/07 03:22:09;;;;;;;23.30;13.63;;;;;;;;;;5073328;28;20021;-60
2023/06/07 03:24:38;;;;;;;22.90;12.90;;;;;;;;;;5072421;28;20361;-55
2023/06/07 03:27:05;;;;;;;25.80;13.50;;;;;;;;;;5071373;28;20527;-58
2023/06/07 03:29:31;;;;;;;23.67;12.85;;;;;;;;;;5069343;28;20024;-57
2023/06/07 03:31:57;;;;;;;20.85;13.07;;;;;;;;;;5073730;28;20070;-59
2023/06/07 03:34:26;;;;;;;20.83;13.23;;;;;;;;;;5073574;28;20028;-57
2023/06/07 03:36:51;;;;;;;23.75;12.93;;;;;;;;;;5073941;28;20538;-58
2023/06/07 03:39:17;;;;;;;22.05;12.90;;;;;;;;;;5073926;28;20020;-58
2023/06/07 03:41:43;;;;;;;23.17;12.90;;;;;;;;;;5073927;28;20441;-59
2023/06/07 03:44:09;;;;;;;23.63;13.45;;;;;;;;;;5088681;28;20119;-56
2023/06/07 03:46:35;;;;;;;28.83;13.57;;;;;;;;;;5073863;28;20016;-57
2023/06/07 03:49:01;;;;;;;24.30;12.98;;;;;;;;;;5073325;28;20024;-59
2023/06/07 03:51:27;;;;;;;22.80;13.65;;;;;;;;;;5072343;28;20091;-58
2023/06/07 03:53:53;;;;;;;21.95;12.90;;;;;;;;;;5073085;28;20461;-59
2023/06/07 03:56:20;;;;;;;22.40;12.32;;;;;;;;;;5073001;28;20029;-57
2023/06/07 03:58:47;;;;;;;29.50;13.73;;;;;;;;;;5073596;28;20074;-58
2023/06/07 04:01:16;;;;;;;23.05;13.15;;;;;;;;;;5073854;28;20084;-58
2023/06/07 04:03:42;;;;;;;27.05;14.68;;;;;;;;;;5073564;28;20012;-56
2023/06/07 04:06:08;;;;;;;23.45;13.95;;;;;;;;;;5072649;28;20028;-59
2023/06/07 04:08:36;;;;;;;22.80;13.85;;;;;;;;;;5073642;28;20373;-59
2023/06/07 04:11:02;;;;;;;22.63;13.75;;;;;;;;;;5072210;28;20024;-59
2023/06/07 04:13:28;;;;;;;22.17;13.30;;;;;;;;;;5088845;28;20521;-50
2023/06/07 04:15:54;;;;;;;22.15;13.90;;;;;;;;;;5088089;28;20063;-59
2023/06/07 04:18:20;;;;;;;29.10;14.95;;;;;;;;;;5073530;28;20024;-58
2023/06/07 04:20:46;;;;;;;29.05;15.00;;;;;;;;;;5088762;28;20104;-59
2023/06/07 04:23:12;;;;;;;25.90;14.68;;;;;;;;;;5073042;28;20112;-57
2023/06/07 04:25:39;;;;;;;27.90;14.93;;;;;;;;;;5072334;28;20054;-59
2023/06/07 04:28:05;;;;;;;23.52;14.40;;;;;;;;;;5072910;28;20146;-59
2023/06/07 04:30:34;;;;;;;25.80;15.07;;;;;;;;;;5073069;28;20035;-58
2023/06/07 04:33:12;;;;;;;25.05;14.73;;;;;;;;;;5073147;28;20020;-57
2023/06/07 04:35:41;;;;;;;24.73;15.60;;;;;;;;;;5072140;28;20035;-61
2023/06/07 04:38:08;;;;;;;29.40;15.65;;;;;;;;;;5072897;28;20104;-62
2023/06/07 04:40:40;;;;;;;28.50;16.02;;;;;;;;;;5072729;28;20023;-60
2023/06/07 04:43:06;;;;;;;28.77;16.75;;;;;;;;;;5088409;28;20396;-58
2023/06/07 04:45:33;;;;;;;28.05;16.92;;;;;;;;;;5071887;28;20016;-60
2023/06/07 04:48:00;;;;;;;27.13;15.52;;;;;;;;;;5088128;28;20476;-59
2023/06/07 04:50:28;;;;;;;29.20;16.15;;;;;;;;;;5072556;28;20033;-58
2023/06/07 04:53:00;;;;;;;25.35;15.82;;;;;;;;;;5072760;28;20082;-60
2023/06/07 04:55:28;;;;;;;27.00;16.05;;;;;;;;;;5087123;28;20111;-62
2023/06/07 04:57:54;;;;;;;27.35;16.10;;;;;;;;;;5073159;28;20016;-58
2023/06/07 05:00:20;;;;;;;30.30;16.55;;;;;;;;;;5083474;28;20016;-57
2023/06/07 05:02:46;;;;;;;28.65;16.60;;;;;;;;;;5072585;28;20097;-59
2023/06/07 05:05:13;;;;;;;31.48;18.17;;;;;;;;;;5087069;28;20131;-54
2023/06/07 05:07:41;;;;;;;30.13;17.35;;;;;;;;;;5071857;28;20048;-59
2023/06/07 05:10:07;;;;;;;27.02;17.23;;;;;;;;;;5072026;28;20086;-60
2023/06/07 05:12:33;;;;;;;25.35;16.10;;;;;;;;;;5071809;28;20473;-60
2023/06/07 05:14:59;;;;;;;29.40;18.13;;;;;;;;;;5087121;28;20019;-59
2023/06/07 05:17:28;;;;;;;28.42;16.85;;;;;;;;;;5072132;28;20099;-59
2023/06/07 05:19:54;;;;;;;29.48;17.23;;;;;;;;;;5072019;28;20013;-58
2023/06/07 05:22:21;;;;;;;29.05;17.50;;;;;;;;;;5087019;28;20016;-59
2023/06/07 05:24:47;;;;;;;25.25;16.58;;;;;;;;;;5071240;28;20032;-60
2023/06/07 05:27:17;;;;;;;31.90;18.08;;;;;;;;;;5087243;28;20025;-57
2023/06/07 05:29:44;;;;;;;28.50;16.52;;;;;;;;;;5072082;28;20047;-59
2023/06/07 05:32:10;;;;;;;25.52;17.05;;;;;;;;;;5072519;28;20487;-56
2023/06/07 05:34:37;;;;;;;28.30;17.15;;;;;;;;;;5068862;28;20025;-56
2023/06/07 05:37:05;;;;;;;32.15;17.92;;;;;;;;;;5072688;28;20066;-60
2023/06/07 05:39:31;;;;;;;27.50;16.73;;;;;;;;;;5087321;28;20061;-59
2023/06/07 05:41:57;;;;;;;30.13;18.75;;;;;;;;;;5071790;28;20418;-58
2023/06/07 05:44:22;;;;;;;28.98;16.55;;;;;;;;;;5070818;28;20024;-58
2023/06/07 05:46:48;;;;;;;27.92;16.52;;;;;;;;;;5070491;28;20019;-62
2023/06/07 05:49:15;;;;;;;37.72;24.08;;;;;;;;;;5071618;28;20109;-60
2023/06/07 05:51:41;;;;;;;29.10;18.27;;;;;;;;;;5072113;28;20021;-59
2023/06/07 05:54:07;;;;;;;27.77;18.13;;;;;;;;;;5073180;28;20027;-57
2023/06/07 05:56:33;;;;;;;30.60;17.60;;;;;;;;;;5071518;28;20028;-57
2023/06/07 05:58:59;;;;;;;29.88;18.25;;;;;;;;;;5071409;28;20021;-59
2023/06/07 06:01:26;;;;;;;31.02;17.27;;;;;;;;;;5071473;28;20048;-60
2023/06/07 06:03:52;;;;;;;28.02;17.98;;;;;;;;;;5071531;28;20099;-58
2023/06/07 06:06:18;;;;;;;32.72;17.60;;;;;;;;;;5075345;28;20545;-61
2023/06/07 06:08:45;;;;;;;31.92;17.83;;;;;;;;;;5075300;28;20050;-54
2023/06/07 06:11:12;;;;;;;25.90;16.23;;;;;;;;;;5071773;28;20020;-51
2023/06/07 06:13:38;;;;;;;26.88;16.17;;;;;;;;;;5088749;28;20047;-56
2023/06/07 06:16:05;;;;;;;28.25;16.58;;;;;;;;;;5087018;28;20081;-53
2023/06/07 06:18:31;;;;;;;29.25;16.25;;;;;;;;;;5087736;28;20094;-59
2023/06/07 06:20:57;;;;;;;32.33;17.30;;;;;;;;;;5070630;28;20044;-58
2023/06/07 06:23:23;;;;;;;35.78;23.95;;;;;;;;;;5063587;28;20013;-57
2023/06/07 06:25:50;;;;;;;30.27;16.67;;;;;;;;;;5070609;28;20081;-60
2023/06/07 06:28:16;;;;;;;26.35;17.27;;;;;;;;;;5086745;28;20029;-60
2023/06/07 06:30:42;;;;;;;24.65;16.05;;;;;;;;;;5070839;28;20050;-55
2023/06/07 06:33:08;;;;;;;32.60;17.02;;;;;;;;;;5072619;28;20452;-58
2023/06/07 06:35:34;;;;;;;27.67;17.33;;;;;;;;;;5074627;28;20068;-58
2023/06/07 06:38:00;;;;;;;31.67;19.33;;;;;;;;;;5073476;28;20115;-59
2023/06/07 06:40:26;;;;;;;28.40;16.55;;;;;;;;;;5074852;28;20171;-59
2023/06/07 06:42:52;;;;;;;31.73;18.08;;;;;;;;;;5073723;28;20035;-58
2023/06/07 06:45:18;;;;;;;27.90;17.23;;;;;;;;;;5074543;28;20043;-59
2023/06/07 06:47:44;;;;;;;27.60;17.77;;;;;;;;;;5074430;28;20024;-53
2023/06/07 06:50:12;;;;;;;29.17;18.40;;;;;;;;;;5075943;22;20093;-54
2023/06/07 06:52:47;;;;;;;29.40;17.20;;;;;;;;;;5031479;28;20025;-55
2023/06/07 06:55:13;;;;;;;26.65;17.15;;;;;;;;;;5031904;28;20036;-51
2023/06/07 06:57:39;;;;;;;30.63;16.65;;;;;;;;;;5032714;28;20037;-57
2023/06/07 07:00:08;;;;;;;27.95;16.75;;;;;;;;;;5032673;28;20096;-57
2023/06/07 07:02:35;;;;;;;29.35;17.42;;;;;;;;;;5031589;28;20106;-47
2023/06/07 07:05:03;;;;;;;27.17;16.50;;;;;;;;;;5030993;28;20037;-48
2023/06/07 07:07:29;;;;;;;27.77;17.13;;;;;;;;;;5031833;28;20416;-48
2023/06/07 07:09:55;;;;;;;33.67;22.92;;;;;;;;;;5032758;28;20107;-50
2023/06/07 07:12:21;;;;;;;26.63;18.45;;;;;;;;;;5031532;28;20026;-50
2023/06/07 07:14:48;;;;;;;30.77;18.30;;;;;;;;;;5030732;28;20074;-48
2023/06/07 07:17:14;;;;;;;28.27;18.20;;;;;;;;;;5032815;28;20485;-49
2023/06/07 07:19:40;;;;;;;27.08;17.45;;;;;;;;;;5032212;28;20389;-51
2023/06/07 07:22:06;;;;;;;29.67;18.15;;;;;;;;;;5031947;28;20548;-45
2023/06/07 07:24:32;;;;;;;27.95;17.83;;;;;;;;;;5063541;28;20115;-52
2023/06/07 07:26:58;;;;;;;26.40;17.45;;;;;;;;;;5028422;28;20397;-48
2023/06/07 07:29:24;;;;;;;27.80;18.20;;;;;;;;;;5032156;28;20497;-50
2023/06/07 07:31:50;;;;;;;28.65;18.08;;;;;;;;;;5022898;28;20090;-50
2023/06/07 07:34:16;;;;;;;32.97;18.85;;;;;;;;;;5046910;28;20135;-47
2023/06/07 07:36:43;;;;;;;30.10;18.08;;;;;;;;;;5032366;28;20026;-51
2023/06/07 07:39:10;;;;;;;33.22;19.10;;;;;;;;;;5047964;28;20029;-49
2023/06/07 07:41:36;;;;;;;31.45;20.77;;;;;;;;;;5047417;28;20034;-48
2023/06/07 07:44:02;;;;;;;37.38;23.25;;;;;;;;;;5031328;28;20036;-54
2023/06/07 07:46:28;;;;;;;29.25;17.85;;;;;;;;;;5032291;28;20037;-51
2023/06/07 07:48:54;;;;;;;30.23;18.77;;;;;;;;;;5047956;28;20017;-49
2023/06/07 07:51:20;;;;;;;27.13;17.08;;;;;;;;;;5032290;28;20064;-56
2023/06/07 07:53:47;;;;;;;29.30;17.60;;;;;;;;;;5047637;28;20033;-47
2023/06/07 07:56:13;;;;;;;37.50;26.83;;;;;;;;;;5046468;28;20056;-49
2023/06/07 07:58:39;;;;;;;28.10;17.73;;;;;;;;;;5043021;28;20381;-50
2023/06/07 08:01:08;;;;;;;32.33;20.77;;;;;;;;;;5028913;28;20025;-52
2023/06/07 08:03:34;;;;;;;29.10;18.88;;;;;;;;;;5029890;28;20043;-54
2023/06/07 08:06:01;;;;;;;27.50;17.85;;;;;;;;;;5028736;28;20026;-56
2023/06/07 08:08:28;;;;;;;29.20;17.67;;;;;;;;;;5031129;28;20030;-50
2023/06/07 08:10:54;;;;;;;33.03;18.55;;;;;;;;;;5030196;28;20028;-51
2023/06/07 08:13:20;;;;;;;29.58;17.45;;;;;;;;;;5029797;28;20056;-60
2023/06/07 08:15:47;;;;;;;30.67;18.77;;;;;;;;;;5029552;28;20056;-63
2023/06/07 08:18:13;;;;;;;31.25;18.90;;;;;;;;;;5030302;28;20030;-64
2023/06/07 08:20:39;;;;;;;30.73;18.92;;;;;;;;;;5031656;28;20045;-61
2023/06/07 08:23:06;;;;;;;29.60;17.85;;;;;;;;;;5030274;28;20029;-59
2023/06/07 08:25:32;;;;;;;27.40;17.80;;;;;;;;;;5029482;28;20022;-59
2023/06/07 08:27:59;;;;;;;28.92;17.30;;;;;;;;;;5031685;28;20022;-58
2023/06/07 08:30:25;;;;;;;26.67;18.98;;;;;;;;;;5030261;28;20048;-60
2023/06/07 08:32:51;;;;;;;29.63;17.50;;;;;;;;;;5030110;28;20025;-58
2023/06/07 08:35:17;;;;;;;28.15;17.80;;;;;;;;;;5029148;28;20026;-61
2023/06/07 08:37:44;;;;;;;24.75;16.10;;;;;;;;;;5030072;28;20108;-60
2023/06/07 08:40:10;;;;;;;29.77;16.88;;;;;;;;;;5031419;28;20017;-59
2023/06/07 08:42:38;;;;;;;32.80;18.98;;;;;;;;;;5029824;28;20032;-60
2023/06/07 08:45:05;;;;;;;28.45;19.30;;;;;;;;;;5029093;28;20472;-58
2023/06/07 08:47:36;;;;;;;31.10;18.58;;;;;;;;;;5030983;28;20369;-61
2023/06/07 08:50:02;;;;;;;30.10;18.38;;;;;;;;;;5029558;28;20047;-58
2023/06/07 08:52:30;;;;;;;30.90;16.92;;;;;;;;;;5029914;28;20077;-61
2023/06/07 08:54:59;;;;;;;31.60;19.40;;;;;;;;;;5030426;28;20039;-59
2023/06/07 08:57:26;;;;;;;27.13;18.25;;;;;;;;;;5028950;28;20380;-57
2023/06/07 08:59:52;;;;;;;28.38;18.13;;;;;;;;;;5029482;28;20029;-61
2023/06/07 09:02:19;;;;;;;29.58;19.65;;;;;;;;;;5028091;28;20021;-60
2023/06/07 09:04:46;;;;;;;31.50;18.05;;;;;;;;;;5029662;28;20100;-61
2023/06/07 09:07:12;;;;;;;30.40;18.90;;;;;;;;;;5031925;28;20153;-59
2023/06/07 09:09:43;;;;;;;27.50;18.50;;;;;;;;;;5028924;28;20033;-61
2023/06/07 09:12:10;;;;;;;27.83;17.60;;;;;;;;;;5030626;28;20029;-62
2023/06/07 09:14:37;;;;;;;31.77;18.48;;;;;;;;;;5030018;28;20028;-61
2023/06/07 09:17:03;;;;;;;31.85;19.15;;;;;;;;;;5029704;28;20048;-61
2023/06/07 09:19:32;;;;;;;28.33;19.63;;;;;;;;;;5029062;28;20098;-60
2023/06/07 09:21:58;;;;;;;27.95;18.13;;;;;;;;;;5029106;28;20477;-63
2023/06/07 09:24:31;;;;;;;28.83;18.70;;;;;;;;;;5028100;28;20078;-61
2023/06/07 09:26:57;;;;;;;27.52;17.65;;;;;;;;;;5030337;28;20021;-61
2023/06/07 09:29:25;;;;;;;29.63;18.27;;;;;;;;;;5024280;28;20545;-62
2023/06/07 09:31:51;;;;;;;30.27;18.83;;;;;;;;;;5030085;28;20071;-60
2023/06/07 09:34:21;;;;;;;29.58;17.90;;;;;;;;;;5029253;28;20030;-60
2023/06/07 09:36:57;;;;;;;29.83;18.27;;;;;;;;;;5028749;28;20013;-62
2023/06/07 09:39:27;;;;;;;26.73;18.95;;;;;;;;;;5026746;28;20107;-60
2023/06/07 09:41:54;;;;;;;29.40;18.75;;;;;;;;;;5018564;28;20080;-60
2023/06/07 09:44:30;;;;;;;27.90;18.88;;;;;;;;;;5020625;28;20044;-60
2023/06/07 09:46:56;;;;;;;30.67;18.60;;;;;;;;;;5022271;28;20017;-59
2023/06/07 09:49:23;;;;;;;28.45;19.05;;;;;;;;;;5030015;28;20055;-62
2023/06/07 09:51:52;;;;;;;27.65;19.15;;;;;;;;;;5029420;28;20112;-59
2023/06/07 09:54:19;;;;;;;25.40;18.10;;;;;;;;;;5028570;28;20021;-59
2023/06/07 09:56:45;;;;;;;26.80;18.63;;;;;;;;;;5029692;28;20115;-60
2023/06/07 09:59:16;;;;;;;31.40;17.83;;;;;;;;;;5018020;28;20113;-61
2023/06/07 10:01:43;;;;;;;29.77;18.40;;;;;;;;;;5008667;28;20021;-59
2023/06/07 10:04:10;;;;;;;28.38;18.10;;;;;;;;;;5008808;28;20522;-56
2023/06/07 10:06:41;;;;;;;27.75;19.40;;;;;;;;;;5009423;28;20072;-59
2023/06/07 10:09:07;;;;;;;28.73;19.23;;;;;;;;;;5013872;28;20042;-61
2023/06/07 10:11:34;;;;;;;29.35;20.70;;;;;;;;;;5018204;28;20016;-60
2023/06/07 10:14:10;;;;;;;30.65;18.15;;;;;;;;;;5051457;28;20040;-61
2023/06/07 10:16:37;;;;;;;27.38;19.20;;;;;;;;;;5053381;28;20025;-57
2023/06/07 10:19:15;;;;;;;28.52;18.73;;;;;;;;;;5053482;28;20021;-57
2023/06/07 10:21:41;;;;;;;;;;;;;;;;;;5053215;28;20036;-58
2023/06/07 10:24:13;;;;;;;31.77;19.45;;;;;;;;;;5051116;28;20323;-61
2023/06/07 10:26:57;;;;;;;24.63;17.58;;;;;;;;;;5050275;28;20052;-58
2023/06/07 10:29:32;;;;;;;29.75;19.17;;;;;;;;;;5051827;28;20017;-61
2023/06/07 10:32:21;;;;;;;24.85;18.42;;;;;;;;;;5051881;28;20055;-57
2023/06/07 10:34:48;;;;;;;27.85;19.80;;;;;;;;;;5039248;28;20104;-61
2023/06/07 10:37:14;;;;;;;28.15;18.52;;;;;;;;;;5051884;28;20021;-59
2023/06/07 10:39:40;;;;;;;27.42;19.88;;;;;;;;;;5051457;28;20017;-59
2023/06/07 10:42:07;;;;;;;27.25;19.17;;;;;;;;;;5052668;28;20036;-58
2023/06/07 10:44:33;;;;;;;29.58;18.10;;;;;;;;;;5052077;28;20021;-61
2023/06/07 10:47:18;;;;;;;27.73;18.40;;;;;;;;;;5052244;28;20040;-59
2023/06/07 10:49:44;;;;;;;25.50;17.88;;;;;;;;;;5052556;28;20021;-59
2023/06/07 10:52:14;;;;;;;27.13;17.67;;;;;;;;;;5052915;28;20435;-60
2023/06/07 10:54:41;;;;;;;25.00;18.33;;;;;;;;;;5031608;28;20029;-60
2023/06/07 10:57:07;;;;;;;26.05;17.77;;;;;;;;;;5032566;28;20136;-60
2023/06/07 10:59:34;;;;;;;26.92;18.65;;;;;;;;;;5047962;28;20531;-61
2023/06/07 11:02:18;;;;;;;25.48;17.92;;;;;;;;;;5032755;28;20151;-60
2023/06/07 11:04:54;;;;;;;27.50;18.80;;;;;;;;;;5032261;28;20029;-61
2023/06/07 11:07:22;;;;;;;27.98;17.88;;;;;;;;;;5033116;28;20025;-61
2023/06/07 11:09:48;;;;;;;28.90;19.50;;;;;;;;;;5031686;28;20061;-60
2023/06/07 11:12:33;;;;;;;25.63;18.60;;;;;;;;;;5033169;28;20065;-60
2023/06/07 11:15:17;;;;;;;25.13;17.92;;;;;;;;;;5030703;28;20029;-61
2023/06/07 11:17:56;;;;;;;24.90;17.73;;;;;;;;;;5030965;28;20021;-62
2023/06/07 11:20:38;;;;;;;29.67;19.42;;;;;;;;;;5030648;28;20033;-60
2023/06/07 11:23:22;;;;;;;25.65;18.20;;;;;;;;;;5030671;28;20437;-60
2023/06/07 11:25:49;;;;;;;25.20;17.38;;;;;;;;;;5030447;28;20030;-58
2023/06/07 11:28:16;;;;;;;25.55;17.55;;;;;;;;;;5032169;28;20452;-58
2023/06/07 11:30:45;;;;;;;24.65;17.98;;;;;;;;;;5030501;28;20048;-60
2023/06/07 11:33:19;;;;;;;27.15;18.95;;;;;;;;;;5030840;28;20025;-60
2023/06/07 11:35:45;;;;;;;24.90;17.95;;;;;;;;;;5029686;28;20276;-58
2023/06/07 11:38:11;;;;;;;23.08;18.52;;;;;;;;;;5030401;28;20045;-60
2023/06/07 11:40:37;;;;;;;24.65;18.50;;;;;;;;;;5030328;28;20025;-60
2023/06/07 11:43:03;;;;;;;28.23;19.70;;;;;;;;;;5030679;28;20018;-61
2023/06/07 11:45:33;;;;;;;27.58;19.25;;;;;;;;;;5029430;28;20022;-61
2023/06/07 11:48:03;;;;;;;27.90;19.60;;;;;;;;;;5030721;28;20021;-60
2023/06/07 11:50:29;;;;;;;24.33;19.00;;;;;;;;;;5030246;28;20080;-60
2023/06/07 11:52:56;;;;;;;25.23;19.35;;;;;;;;;;5030876;28;20094;-61
2023/06/07 11:55:22;;;;;;;27.15;19.80;;;;;;;;;;5031139;28;20090;-59
2023/06/07 11:57:53;;;;;;;24.20;20.17;;;;;;;;;;5031764;28;20032;-58
2023/06/07 12:00:23;;;;;;;23.20;19.02;;;;;;;;;;5030529;28;20393;-59
2023/06/07 12:02:53;;;;;;;21.98;18.90;;;;;;;;;;5030455;28;20493;-60
2023/06/07 12:05:20;;;;;;;22.50;18.40;;;;;;;;;;5029418;28;20033;-58
2023/06/07 12:07:56;;;;;;;22.85;19.00;;;;;;;;;;5031760;28;20036;-62
2023/06/07 12:10:26;;;;;;;21.95;18.85;;;;;;;;;;5030031;28;20466;-61
2023/06/07 12:13:12;;;;;;;23.75;20.17;;;;;;;;;;5030137;28;20511;-60
2023/06/07 12:15:41;;;;;;;24.05;19.08;;;;;;;;;;5030802;28;20025;-57
2023/06/07 12:18:10;;;;;;;22.73;18.75;;;;;;;;;;5030801;28;20029;-60
2023/06/07 12:20:36;;;;;;;22.60;20.08;;;;;;;;;;5030023;28;20194;-61
2023/06/07 12:23:03;;;;;;;22.77;18.83;;;;;;;;;;5029879;28;20040;-61
2023/06/07 12:25:29;;;;;;;22.27;19.27;;;;;;;;;;5029245;28;20024;-59
2023/06/07 12:27:55;;;;;;;23.58;19.63;;;;;;;;;;5031051;28;20545;-61
2023/06/07 12:30:21;;;;;;;24.50;19.17;;;;;;;;;;5028675;28;20421;-60
2023/06/07 12:32:47;;;;;;;22.20;18.42;;;;;;;;;;5029755;28;20017;-60
2023/06/07 12:35:14;;;;;;;24.90;19.15;;;;;;;;;;5029021;28;20029;-61
2023/06/07 12:37:40;;;;;;;24.13;18.65;;;;;;;;;;5030140;28;20021;-61
2023/06/07 12:40:07;;;;;;;22.08;18.45;;;;;;;;;;5031360;28;20485;-57
2023/06/07 12:42:35;;;;;;;26.03;18.90;;;;;;;;;;5023779;28;20114;-59
2023/06/07 12:45:01;;;;;;;23.20;18.97;;;;;;;;;;5028810;28;20280;-61
2023/06/07 12:47:27;;;;;;;21.90;19.00;;;;;;;;;;5029367;28;20060;-63
2023/06/07 12:52:22;;;;;;;21.15;17.70;;;;;;;;;;4662453;28;10000377;-60
2023/06/07 12:54:48;;;;;;;23.08;18.27;;;;;;;;;;5014875;28;20296;-57
2023/06/07 12:57:14;;;;;;;20.27;17.17;;;;;;;;;;5020129;28;20697;-60
2023/06/07 12:59:40;;;;;;;20.27;17.45;;;;;;;;;;5009264;28;20116;-61
2023/06/07 13:02:06;;;;;;;21.70;17.98;;;;;;;;;;5013037;28;20445;-61
2023/06/07 13:04:33;;;;;;;27.60;16.98;;;;;;;;;;5013546;28;20029;-59
2023/06/07 13:06:59;;;;;;;21.52;17.63;;;;;;;;;;4998200;28;20498;-63
2023/06/07 13:09:25;;;;;;;19.50;17.05;;;;;;;;;;5005006;28;20568;-62
2023/06/07 13:11:51;;;;;;;20.50;17.52;;;;;;;;;;5012432;28;20061;-58
2023/06/07 13:14:17;;;;;;;22.58;17.67;;;;;;;;;;4992124;28;20034;-61
2023/06/07 13:16:43;;;;;;;21.38;17.08;;;;;;;;;;4996111;28;20030;-61
2023/06/07 13:19:10;;;;;;;21.55;16.60;;;;;;;;;;4990106;28;20030;-60
2023/06/07 13:21:36;;;;;;;21.15;18.05;;;;;;;;;;4989677;28;20034;-62
2023/06/07 13:24:02;;;;;;;20.30;17.15;;;;;;;;;;4988562;28;20023;-60
2023/06/07 13:26:28;;;;;;;24.50;17.80;;;;;;;;;;4986669;28;20026;-60
2023/06/07 13:28:55;;;;;;;21.10;17.77;;;;;;;;;;4969241;28;20034;-58
2023/06/07 13:31:21;;;;;;;20.60;17.85;;;;;;;;;;4969396;28;20031;-60
2023/06/07 13:33:47;;;;;;;19.45;17.40;;;;;;;;;;4984006;28;20035;-56
2023/06/07 13:36:13;;;;;;;21.13;16.83;;;;;;;;;;4969037;28;20031;-57
2023/06/07 13:38:39;;;;;;;22.17;16.63;;;;;;;;;;4984316;28;20509;-58
2023/06/07 13:41:06;;;;;;;20.08;16.83;;;;;;;;;;4968668;28;20027;-60
2023/06/07 13:43:32;;;;;;;19.98;16.92;;;;;;;;;;4968781;28;20030;-59
2023/06/07 13:45:58;;;;;;;20.17;16.80;;;;;;;;;;4968429;28;20027;-57
2023/06/07 13:48:24;;;;;;;19.15;17.02;;;;;;;;;;4968890;28;20184;-58
2023/06/07 13:50:50;;;;;;;19.10;16.88;;;;;;;;;;4968805;28;20037;-61
2023/06/07 13:53:19;;;;;;;21.27;17.10;;;;;;;;;;4972436;28;20092;-59
2023/06/07 13:55:47;;;;;;;25.75;17.02;;;;;;;;;;4987966;28;20056;-61
2023/06/07 13:58:13;;;;;;;18.85;16.52;;;;;;;;;;4988631;28;20026;-59
2023/06/07 14:00:39;;;;;;;19.33;15.93;;;;;;;;;;4988180;28;20049;-62
2023/06/07 14:03:05;;;;;;;19.75;16.58;;;;;;;;;;4987923;28;20037;-60
2023/06/07 14:05:31;;;;;;;19.80;16.58;;;;;;;;;;4987257;28;20085;-60
2023/06/07 14:07:57;;;;;;;20.23;16.83;;;;;;;;;;4988516;28;20093;-59
2023/06/07 14:10:24;;;;;;;18.83;16.83;;;;;;;;;;4988285;28;20355;-59
2023/06/07 14:12:50;;;;;;;19.65;17.50;;;;;;;;;;4988166;28;20386;-60
2023/06/07 14:15:16;;;;;;;21.02;17.42;;;;;;;;;;4987234;28;20118;-60
2023/06/07 14:17:42;;;;;;;19.95;17.42;;;;;;;;;;4987894;28;20030;-58
2023/06/07 14:20:09;;;;;;;19.23;17.23;;;;;;;;;;4987374;28;20014;-62